sensor_id;sensor_type;location;lat;lon;timestamp;P1;durP1;ratioP1;P2;durP2;ratioP2
49942;SDS011;36011;53.362;58.948;2023-09-19T00:00:28;3.88;;;1.85;;
49942;SDS011;36011;53.362;58.948;2023-09-19T00:03:32;3.33;;;2.17;;
49942;SDS011;36011;53.362;58.948;2023-09-19T00:06:33;3.08;;;1.92;;
49942;SDS011;36011;53.362;58.948;2023-09-19T00:09:40;2.15;;;1.95;;
49942;SDS011;36011;53.362;58.948;2023-09-19T00:12:46;4.05;;;2.30;;
49942;SDS011;36011;53.362;58.948;2023-09-19T00:15:48;2.95;;;1.95;;
49942;SDS011;36011;53.362;58.948;2023-09-19T00:18:49;2.30;;;1.73;;
49942;SDS011;36011;53.362;58.948;2023-09-19T00:21:53;3.15;;;1.80;;
49942;SDS011;36011;53.362;58.948;2023-09-19T00:24:57;4.50;;;2.28;;
49942;SDS011;36011;53.362;58.948;2023-09-19T00:28:01;2.35;;;2.05;;
49942;SDS011;36011;53.362;58.948;2023-09-19T00:31:03;4.05;;;2.10;;
49942;SDS011;36011;53.362;58.948;2023-09-19T00:34:08;3.17;;;2.20;;
49942;SDS011;36011;53.362;58.948;2023-09-19T00:37:15;3.92;;;2.40;;
49942;SDS011;36011;53.362;58.948;2023-09-19T00:40:23;2.47;;;2.28;;
49942;SDS011;36011;53.362;58.948;2023-09-19T00:43:25;3.42;;;2.42;;
49942;SDS011;36011;53.362;58.948;2023-09-19T00:46:30;5.38;;;2.40;;
49942;SDS011;36011;53.362;58.948;2023-09-19T00:49:36;3.65;;;2.65;;
49942;SDS011;36011;53.362;58.948;2023-09-19T00:52:41;3.80;;;2.53;;
49942;SDS011;36011;53.362;58.948;2023-09-19T00:55:45;5.35;;;2.78;;
49942;SDS011;36011;53.362;58.948;2023-09-19T00:58:47;2.72;;;2.25;;
49942;SDS011;36011;53.362;58.948;2023-09-19T01:01:51;4.32;;;2.50;;
49942;SDS011;36011;53.362;58.948;2023-09-19T01:04:57;4.85;;;2.30;;
49942;SDS011;36011;53.362;58.948;2023-09-19T01:08:02;3.88;;;2.60;;
49942;SDS011;36011;53.362;58.948;2023-09-19T01:11:28;4.40;;;2.60;;
49942;SDS011;36011;53.362;58.948;2023-09-19T01:14:42;5.40;;;3.30;;
49942;SDS011;36011;53.362;58.948;2023-09-19T01:18:21;5.53;;;2.67;;
49942;SDS011;36011;53.362;58.948;2023-09-19T01:21:44;5.15;;;3.78;;
49942;SDS011;36011;53.362;58.948;2023-09-19T01:28:35;8.43;;;5.00;;
49942;SDS011;36011;53.362;58.948;2023-09-19T01:31:59;10.30;;;6.53;;
49942;SDS011;36011;53.362;58.948;2023-09-19T01:35:04;11.00;;;6.03;;
49942;SDS011;36011;53.362;58.948;2023-09-19T01:38:09;17.60;;;11.43;;
49942;SDS011;36011;53.362;58.948;2023-09-19T01:41:12;17.92;;;7.90;;
49942;SDS011;36011;53.362;58.948;2023-09-19T01:44:36;12.65;;;7.03;;
49942;SDS011;36011;53.362;58.948;2023-09-19T01:47:51;4.95;;;3.72;;
49942;SDS011;36011;53.362;58.948;2023-09-19T01:51:03;5.75;;;2.78;;
49942;SDS011;36011;53.362;58.948;2023-09-19T01:54:09;4.43;;;2.90;;
49942;SDS011;36011;53.362;58.948;2023-09-19T01:57:35;15.55;;;7.28;;
49942;SDS011;36011;53.362;58.948;2023-09-19T02:00:44;16.73;;;8.18;;
49942;SDS011;36011;53.362;58.948;2023-09-19T02:03:49;5.30;;;3.35;;
49942;SDS011;36011;53.362;58.948;2023-09-19T02:06:53;4.43;;;2.47;;
49942;SDS011;36011;53.362;58.948;2023-09-19T02:09:57;6.93;;;4.47;;
49942;SDS011;36011;53.362;58.948;2023-09-19T02:13:05;3.90;;;2.28;;
49942;SDS011;36011;53.362;58.948;2023-09-19T02:16:11;10.07;;;5.43;;
49942;SDS011;36011;53.362;58.948;2023-09-19T02:19:13;5.00;;;2.45;;
49942;SDS011;36011;53.362;58.948;2023-09-19T02:22:17;3.33;;;1.95;;
49942;SDS011;36011;53.362;58.948;2023-09-19T02:25:24;8.20;;;4.78;;
49942;SDS011;36011;53.362;58.948;2023-09-19T02:28:31;5.13;;;3.33;;
49942;SDS011;36011;53.362;58.948;2023-09-19T02:31:35;2.72;;;2.08;;
49942;SDS011;36011;53.362;58.948;2023-09-19T02:34:38;5.78;;;2.25;;
49942;SDS011;36011;53.362;58.948;2023-09-19T02:37:45;4.00;;;2.80;;
49942;SDS011;36011;53.362;58.948;2023-09-19T02:40:47;3.95;;;2.88;;
49942;SDS011;36011;53.362;58.948;2023-09-19T02:43:48;4.47;;;2.67;;
49942;SDS011;36011;53.362;58.948;2023-09-19T02:46:50;4.10;;;2.95;;
49942;SDS011;36011;53.362;58.948;2023-09-19T02:49:54;2.78;;;2.25;;
49942;SDS011;36011;53.362;58.948;2023-09-19T02:52:55;3.35;;;2.70;;
49942;SDS011;36011;53.362;58.948;2023-09-19T02:59:04;3.47;;;2.03;;
49942;SDS011;36011;53.362;58.948;2023-09-19T03:02:09;5.18;;;1.83;;
49942;SDS011;36011;53.362;58.948;2023-09-19T03:05:12;3.97;;;2.42;;
49942;SDS011;36011;53.362;58.948;2023-09-19T03:08:14;4.32;;;1.98;;
49942;SDS011;36011;53.362;58.948;2023-09-19T03:11:15;3.83;;;1.90;;
49942;SDS011;36011;53.362;58.948;2023-09-19T03:14:23;3.40;;;1.67;;
49942;SDS011;36011;53.362;58.948;2023-09-19T03:17:25;6.07;;;2.20;;
49942;SDS011;36011;53.362;58.948;2023-09-19T03:20:30;2.42;;;1.85;;
49942;SDS011;36011;53.362;58.948;2023-09-19T03:23:38;3.70;;;1.77;;
49942;SDS011;36011;53.362;58.948;2023-09-19T03:26:39;2.72;;;1.77;;
49942;SDS011;36011;53.362;58.948;2023-09-19T03:29:48;1.70;;;1.50;;
49942;SDS011;36011;53.362;58.948;2023-09-19T03:32:52;1.85;;;1.55;;
49942;SDS011;36011;53.362;58.948;2023-09-19T03:38:59;1.70;;;1.58;;
49942;SDS011;36011;53.362;58.948;2023-09-19T03:42:07;2.70;;;1.80;;
49942;SDS011;36011;53.362;58.948;2023-09-19T03:45:10;2.50;;;1.58;;
49942;SDS011;36011;53.362;58.948;2023-09-19T03:48:13;1.70;;;1.33;;
49942;SDS011;36011;53.362;58.948;2023-09-19T03:51:16;4.20;;;1.48;;
49942;SDS011;36011;53.362;58.948;2023-09-19T03:54:18;8.93;;;3.63;;
49942;SDS011;36011;53.362;58.948;2023-09-19T03:57:20;3.47;;;1.88;;
49942;SDS011;36011;53.362;58.948;2023-09-19T04:00:24;2.83;;;1.70;;
49942;SDS011;36011;53.362;58.948;2023-09-19T04:03:27;4.53;;;1.83;;
49942;SDS011;36011;53.362;58.948;2023-09-19T04:06:36;2.25;;;1.20;;
49942;SDS011;36011;53.362;58.948;2023-09-19T04:09:40;2.45;;;1.10;;
49942;SDS011;36011;53.362;58.948;2023-09-19T04:15:55;5.10;;;1.75;;
49942;SDS011;36011;53.362;58.948;2023-09-19T04:18:57;4.70;;;1.80;;
49942;SDS011;36011;53.362;58.948;2023-09-19T04:21:58;1.98;;;1.15;;
49942;SDS011;36011;53.362;58.948;2023-09-19T04:25:00;2.03;;;1.20;;
49942;SDS011;36011;53.362;58.948;2023-09-19T04:28:02;1.98;;;1.70;;
49942;SDS011;36011;53.362;58.948;2023-09-19T04:31:05;2.58;;;1.50;;
49942;SDS011;36011;53.362;58.948;2023-09-19T04:34:11;4.32;;;2.05;;
49942;SDS011;36011;53.362;58.948;2023-09-19T04:37:18;4.30;;;2.00;;
49942;SDS011;36011;53.362;58.948;2023-09-19T04:40:19;1.50;;;1.40;;
49942;SDS011;36011;53.362;58.948;2023-09-19T04:43:23;1.52;;;0.98;;
49942;SDS011;36011;53.362;58.948;2023-09-19T04:46:25;1.77;;;1.08;;
49942;SDS011;36011;53.362;58.948;2023-09-19T04:49:34;1.20;;;1.10;;
49942;SDS011;36011;53.362;58.948;2023-09-19T04:52:39;1.33;;;1.05;;
49942;SDS011;36011;53.362;58.948;2023-09-19T04:55:43;2.97;;;1.05;;
49942;SDS011;36011;53.362;58.948;2023-09-19T04:58:50;1.35;;;1.08;;
49942;SDS011;36011;53.362;58.948;2023-09-19T05:01:55;1.55;;;1.08;;
49942;SDS011;36011;53.362;58.948;2023-09-19T05:04:57;1.40;;;0.98;;
49942;SDS011;36011;53.362;58.948;2023-09-19T05:08:02;1.77;;;0.98;;
49942;SDS011;36011;53.362;58.948;2023-09-19T05:11:07;1.63;;;0.98;;
49942;SDS011;36011;53.362;58.948;2023-09-19T05:14:11;1.88;;;1.30;;
49942;SDS011;36011;53.362;58.948;2023-09-19T05:17:13;0.98;;;0.90;;
49942;SDS011;36011;53.362;58.948;2023-09-19T05:20:20;1.27;;;1.13;;
49942;SDS011;36011;53.362;58.948;2023-09-19T05:23:30;2.47;;;1.20;;
49942;SDS011;36011;53.362;58.948;2023-09-19T05:26:34;1.30;;;1.00;;
49942;SDS011;36011;53.362;58.948;2023-09-19T05:29:38;1.00;;;0.95;;
49942;SDS011;36011;53.362;58.948;2023-09-19T05:32:40;1.85;;;1.05;;
49942;SDS011;36011;53.362;58.948;2023-09-19T05:35:44;0.85;;;0.60;;
49942;SDS011;36011;53.362;58.948;2023-09-19T05:38:50;2.45;;;0.90;;
49942;SDS011;36011;53.362;58.948;2023-09-19T05:41:54;0.82;;;0.50;;
49942;SDS011;36011;53.362;58.948;2023-09-19T05:44:58;1.75;;;0.45;;
49942;SDS011;36011;53.362;58.948;2023-09-19T05:48:07;0.70;;;0.35;;
49942;SDS011;36011;53.362;58.948;2023-09-19T05:51:19;1.17;;;0.32;;
49942;SDS011;36011;53.362;58.948;2023-09-19T05:54:23;0.88;;;0.60;;
49942;SDS011;36011;53.362;58.948;2023-09-19T05:57:24;0.73;;;0.47;;
49942;SDS011;36011;53.362;58.948;2023-09-19T06:00:26;0.53;;;0.40;;
49942;SDS011;36011;53.362;58.948;2023-09-19T06:03:35;1.33;;;0.40;;
49942;SDS011;36011;53.362;58.948;2023-09-19T06:06:40;0.47;;;0.40;;
49942;SDS011;36011;53.362;58.948;2023-09-19T06:09:45;1.50;;;0.70;;
49942;SDS011;36011;53.362;58.948;2023-09-19T06:12:49;0.50;;;0.43;;
49942;SDS011;36011;53.362;58.948;2023-09-19T06:15:54;0.93;;;0.47;;
49942;SDS011;36011;53.362;58.948;2023-09-19T06:19:00;0.30;;;0.30;;
49942;SDS011;36011;53.362;58.948;2023-09-19T06:22:04;0.95;;;0.40;;
49942;SDS011;36011;53.362;58.948;2023-09-19T06:25:05;1.20;;;0.40;;
49942;SDS011;36011;53.362;58.948;2023-09-19T06:28:07;0.30;;;0.30;;
49942;SDS011;36011;53.362;58.948;2023-09-19T06:31:15;1.27;;;0.50;;
49942;SDS011;36011;53.362;58.948;2023-09-19T06:34:19;1.75;;;0.75;;
49942;SDS011;36011;53.362;58.948;2023-09-19T06:37:23;0.70;;;0.52;;
49942;SDS011;36011;53.362;58.948;2023-09-19T06:43:28;0.82;;;0.50;;
49942;SDS011;36011;53.362;58.948;2023-09-19T06:46:37;2.33;;;0.70;;
49942;SDS011;36011;53.362;58.948;2023-09-19T06:49:42;1.05;;;0.65;;
49942;SDS011;36011;53.362;58.948;2023-09-19T06:52:51;0.98;;;0.32;;
49942;SDS011;36011;53.362;58.948;2023-09-19T06:55:55;0.57;;;0.45;;
49942;SDS011;36011;53.362;58.948;2023-09-19T06:58:58;1.17;;;0.50;;
49942;SDS011;36011;53.362;58.948;2023-09-19T07:05:04;1.17;;;0.60;;
49942;SDS011;36011;53.362;58.948;2023-09-19T07:08:09;0.70;;;0.50;;
49942;SDS011;36011;53.362;58.948;2023-09-19T07:11:16;2.92;;;0.55;;
49942;SDS011;36011;53.362;58.948;2023-09-19T07:14:17;3.45;;;0.80;;
49942;SDS011;36011;53.362;58.948;2023-09-19T07:17:19;1.02;;;0.30;;
49942;SDS011;36011;53.362;58.948;2023-09-19T07:20:27;0.50;;;0.50;;
49942;SDS011;36011;53.362;58.948;2023-09-19T07:23:33;0.63;;;0.40;;
49942;SDS011;36011;53.362;58.948;2023-09-19T07:26:39;1.50;;;0.60;;
49942;SDS011;36011;53.362;58.948;2023-09-19T07:29:46;0.50;;;0.47;;
49942;SDS011;36011;53.362;58.948;2023-09-19T07:32:54;1.30;;;0.98;;
49942;SDS011;36011;53.362;58.948;2023-09-19T07:35:56;2.65;;;0.50;;
49942;SDS011;36011;53.362;58.948;2023-09-19T07:39:01;2.40;;;1.23;;
49942;SDS011;36011;53.362;58.948;2023-09-19T07:42:12;1.23;;;0.82;;
49942;SDS011;36011;53.362;58.948;2023-09-19T07:45:20;1.20;;;1.00;;
49942;SDS011;36011;53.362;58.948;2023-09-19T07:48:24;0.90;;;0.60;;
49942;SDS011;36011;53.362;58.948;2023-09-19T07:51:30;0.73;;;0.50;;
49942;SDS011;36011;53.362;58.948;2023-09-19T07:54:33;3.58;;;0.60;;
49942;SDS011;36011;53.362;58.948;2023-09-19T07:57:39;1.25;;;0.80;;
49942;SDS011;36011;53.362;58.948;2023-09-19T08:00:44;20.10;;;14.93;;
49942;SDS011;36011;53.362;58.948;2023-09-19T08:03:47;3.70;;;1.20;;
49942;SDS011;36011;53.362;58.948;2023-09-19T08:06:48;0.90;;;0.60;;
49942;SDS011;36011;53.362;58.948;2023-09-19T08:09:55;1.85;;;1.08;;
49942;SDS011;36011;53.362;58.948;2023-09-19T08:13:02;3.72;;;2.20;;
49942;SDS011;36011;53.362;58.948;2023-09-19T08:16:05;1.60;;;0.70;;
49942;SDS011;36011;53.362;58.948;2023-09-19T08:19:10;0.90;;;0.60;;
49942;SDS011;36011;53.362;58.948;2023-09-19T08:22:15;1.25;;;0.70;;
49942;SDS011;36011;53.362;58.948;2023-09-19T08:25:19;1.98;;;1.15;;
49942;SDS011;36011;53.362;58.948;2023-09-19T08:28:23;1.13;;;0.55;;
49942;SDS011;36011;53.362;58.948;2023-09-19T08:31:28;1.75;;;1.17;;
49942;SDS011;36011;53.362;58.948;2023-09-19T08:34:31;3.85;;;1.98;;
49942;SDS011;36011;53.362;58.948;2023-09-19T08:37:35;2.53;;;1.05;;
49942;SDS011;36011;53.362;58.948;2023-09-19T08:40:38;1.35;;;1.08;;
49942;SDS011;36011;53.362;58.948;2023-09-19T08:43:44;2.10;;;1.88;;
49942;SDS011;36011;53.362;58.948;2023-09-19T08:46:53;2.70;;;1.00;;
49942;SDS011;36011;53.362;58.948;2023-09-19T08:50:04;1.52;;;1.08;;
49942;SDS011;36011;53.362;58.948;2023-09-19T08:53:20;6.07;;;1.35;;
49942;SDS011;36011;53.362;58.948;2023-09-19T08:56:33;2.67;;;1.33;;
49942;SDS011;36011;53.362;58.948;2023-09-19T08:59:38;6.07;;;2.38;;
49942;SDS011;36011;53.362;58.948;2023-09-19T09:02:45;4.55;;;2.90;;
49942;SDS011;36011;53.362;58.948;2023-09-19T09:05:52;8.27;;;3.92;;
49942;SDS011;36011;53.362;58.948;2023-09-19T09:08:58;7.35;;;3.95;;
49942;SDS011;36011;53.362;58.948;2023-09-19T09:12:03;4.93;;;3.42;;
49942;SDS011;36011;53.362;58.948;2023-09-19T09:15:05;4.13;;;3.20;;
49942;SDS011;36011;53.362;58.948;2023-09-19T09:18:09;3.70;;;2.40;;
49942;SDS011;36011;53.362;58.948;2023-09-19T09:21:14;6.80;;;3.33;;
49942;SDS011;36011;53.362;58.948;2023-09-19T09:24:26;5.83;;;3.97;;
49942;SDS011;36011;53.362;58.948;2023-09-19T09:27:31;4.65;;;3.20;;
49942;SDS011;36011;53.362;58.948;2023-09-19T09:30:37;9.32;;;5.35;;
49942;SDS011;36011;53.362;58.948;2023-09-19T09:33:42;8.73;;;5.10;;
49942;SDS011;36011;53.362;58.948;2023-09-19T09:36:55;7.47;;;4.20;;
49942;SDS011;36011;53.362;58.948;2023-09-19T09:39:59;5.75;;;3.85;;
49942;SDS011;36011;53.362;58.948;2023-09-19T09:43:26;7.22;;;4.93;;
49942;SDS011;36011;53.362;58.948;2023-09-19T09:46:29;9.20;;;4.77;;
49942;SDS011;36011;53.362;58.948;2023-09-19T09:49:55;5.57;;;3.30;;
49942;SDS011;36011;53.362;58.948;2023-09-19T09:53:19;5.50;;;3.90;;
49942;SDS011;36011;53.362;58.948;2023-09-19T09:56:31;3.47;;;2.83;;
49942;SDS011;36011;53.362;58.948;2023-09-19T09:59:56;6.07;;;3.53;;
49942;SDS011;36011;53.362;58.948;2023-09-19T10:03:20;6.32;;;3.05;;
49942;SDS011;36011;53.362;58.948;2023-09-19T10:06:40;4.30;;;3.00;;
49942;SDS011;36011;53.362;58.948;2023-09-19T10:09:47;4.65;;;3.08;;
49942;SDS011;36011;53.362;58.948;2023-09-19T10:12:51;10.15;;;4.45;;
49942;SDS011;36011;53.362;58.948;2023-09-19T10:16:06;6.72;;;5.03;;
49942;SDS011;36011;53.362;58.948;2023-09-19T10:19:20;8.45;;;4.40;;
49942;SDS011;36011;53.362;58.948;2023-09-19T10:22:34;6.03;;;3.92;;
49942;SDS011;36011;53.362;58.948;2023-09-19T10:25:39;6.32;;;4.35;;
49942;SDS011;36011;53.362;58.948;2023-09-19T10:28:46;4.82;;;4.00;;
49942;SDS011;36011;53.362;58.948;2023-09-19T10:31:51;4.18;;;3.78;;
49942;SDS011;36011;53.362;58.948;2023-09-19T10:34:56;5.50;;;4.32;;
49942;SDS011;36011;53.362;58.948;2023-09-19T10:38:01;8.00;;;4.28;;
49942;SDS011;36011;53.362;58.948;2023-09-19T10:41:06;6.82;;;4.78;;
49942;SDS011;36011;53.362;58.948;2023-09-19T10:44:08;8.43;;;4.60;;
49942;SDS011;36011;53.362;58.948;2023-09-19T10:47:10;7.50;;;5.53;;
49942;SDS011;36011;53.362;58.948;2023-09-19T10:50:19;6.50;;;4.70;;
49942;SDS011;36011;53.362;58.948;2023-09-19T10:53:26;8.45;;;4.68;;
49942;SDS011;36011;53.362;58.948;2023-09-19T10:56:33;5.75;;;4.55;;
49942;SDS011;36011;53.362;58.948;2023-09-19T10:59:59;8.55;;;6.18;;
49942;SDS011;36011;53.362;58.948;2023-09-19T11:03:24;8.70;;;5.85;;
49942;SDS011;36011;53.362;58.948;2023-09-19T11:06:34;10.60;;;6.95;;
49942;SDS011;36011;53.362;58.948;2023-09-19T11:12:58;15.20;;;11.15;;
49942;SDS011;36011;53.362;58.948;2023-09-19T11:16:04;11.13;;;7.35;;
49942;SDS011;36011;53.362;58.948;2023-09-19T11:19:06;7.72;;;5.50;;
49942;SDS011;36011;53.362;58.948;2023-09-19T11:22:08;7.00;;;4.40;;
49942;SDS011;36011;53.362;58.948;2023-09-19T11:28:42;39.53;;;24.48;;
49942;SDS011;36011;53.362;58.948;2023-09-19T11:31:44;13.23;;;9.40;;
49942;SDS011;36011;53.362;58.948;2023-09-19T11:34:46;7.80;;;6.03;;
49942;SDS011;36011;53.362;58.948;2023-09-19T11:44:32;10.88;;;8.73;;
49942;SDS011;36011;53.362;58.948;2023-09-19T11:47:35;11.32;;;7.43;;
49942;SDS011;36011;53.362;58.948;2023-09-19T11:50:41;9.02;;;6.40;;
49942;SDS011;36011;53.362;58.948;2023-09-19T11:53:47;8.50;;;5.70;;
49942;SDS011;36011;53.362;58.948;2023-09-19T11:56:49;6.82;;;4.90;;
49942;SDS011;36011;53.362;58.948;2023-09-19T11:59:55;7.63;;;4.50;;
49942;SDS011;36011;53.362;58.948;2023-09-19T12:02:59;7.50;;;3.78;;
49942;SDS011;36011;53.362;58.948;2023-09-19T12:06:12;7.47;;;5.43;;
49942;SDS011;36011;53.362;58.948;2023-09-19T12:09:19;13.05;;;7.60;;
49942;SDS011;36011;53.362;58.948;2023-09-19T12:12:23;8.35;;;5.22;;
49942;SDS011;36011;53.362;58.948;2023-09-19T12:15:30;8.25;;;4.43;;
49942;SDS011;36011;53.362;58.948;2023-09-19T12:18:39;10.30;;;4.53;;
49942;SDS011;36011;53.362;58.948;2023-09-19T12:21:59;8.50;;;4.32;;
49942;SDS011;36011;53.362;58.948;2023-09-19T12:25:10;11.07;;;4.35;;
49942;SDS011;36011;53.362;58.948;2023-09-19T12:28:15;12.10;;;4.63;;
49942;SDS011;36011;53.362;58.948;2023-09-19T12:31:23;9.40;;;3.65;;
49942;SDS011;36011;53.362;58.948;2023-09-19T12:34:28;20.85;;;9.48;;
49942;SDS011;36011;53.362;58.948;2023-09-19T12:37:42;11.63;;;6.70;;
49942;SDS011;36011;53.362;58.948;2023-09-19T12:40:49;10.00;;;4.68;;
49942;SDS011;36011;53.362;58.948;2023-09-19T12:43:52;7.63;;;3.80;;
49942;SDS011;36011;53.362;58.948;2023-09-19T12:46:57;10.20;;;3.75;;
49942;SDS011;36011;53.362;58.948;2023-09-19T12:53:24;10.07;;;4.30;;
49942;SDS011;36011;53.362;58.948;2023-09-19T12:56:28;8.55;;;4.28;;
49942;SDS011;36011;53.362;58.948;2023-09-19T12:59:45;12.85;;;5.60;;
49942;SDS011;36011;53.362;58.948;2023-09-19T13:06:35;20.55;;;9.35;;
49942;SDS011;36011;53.362;58.948;2023-09-19T13:10:01;18.95;;;10.60;;
49942;SDS011;36011;53.362;58.948;2023-09-19T13:13:23;20.35;;;11.05;;
49942;SDS011;36011;53.362;58.948;2023-09-19T13:16:29;22.38;;;9.77;;
49942;SDS011;36011;53.362;58.948;2023-09-19T13:19:37;18.20;;;10.32;;
49942;SDS011;36011;53.362;58.948;2023-09-19T13:22:43;17.80;;;9.68;;
49942;SDS011;36011;53.362;58.948;2023-09-19T13:28:57;20.97;;;9.73;;
49942;SDS011;36011;53.362;58.948;2023-09-19T13:32:04;22.92;;;11.77;;
49942;SDS011;36011;53.362;58.948;2023-09-19T13:35:08;32.42;;;19.27;;
49942;SDS011;36011;53.362;58.948;2023-09-19T13:38:15;18.00;;;11.05;;
49942;SDS011;36011;53.362;58.948;2023-09-19T13:41:19;14.18;;;9.73;;
49942;SDS011;36011;53.362;58.948;2023-09-19T13:44:24;20.73;;;9.05;;
49942;SDS011;36011;53.362;58.948;2023-09-19T13:47:32;14.55;;;9.30;;
49942;SDS011;36011;53.362;58.948;2023-09-19T13:50:34;18.85;;;10.68;;
49942;SDS011;36011;53.362;58.948;2023-09-19T13:53:44;20.88;;;10.50;;
49942;SDS011;36011;53.362;58.948;2023-09-19T13:56:49;24.85;;;12.50;;
49942;SDS011;36011;53.362;58.948;2023-09-19T13:59:58;22.42;;;11.85;;
49942;SDS011;36011;53.362;58.948;2023-09-19T14:03:03;21.73;;;9.55;;
49942;SDS011;36011;53.362;58.948;2023-09-19T14:06:10;32.08;;;18.40;;
49942;SDS011;36011;53.362;58.948;2023-09-19T14:09:16;22.55;;;9.85;;
49942;SDS011;36011;53.362;58.948;2023-09-19T14:12:22;18.42;;;8.63;;
49942;SDS011;36011;53.362;58.948;2023-09-19T14:15:29;7.88;;;4.88;;
49942;SDS011;36011;53.362;58.948;2023-09-19T14:18:31;6.97;;;3.83;;
49942;SDS011;36011;53.362;58.948;2023-09-19T14:21:37;12.50;;;8.13;;
49942;SDS011;36011;53.362;58.948;2023-09-19T14:24:40;11.30;;;6.28;;
49942;SDS011;36011;53.362;58.948;2023-09-19T14:27:47;7.30;;;4.43;;
49942;SDS011;36011;53.362;58.948;2023-09-19T14:30:54;5.40;;;4.20;;
49942;SDS011;36011;53.362;58.948;2023-09-19T14:33:58;6.30;;;3.60;;
49942;SDS011;36011;53.362;58.948;2023-09-19T14:37:05;7.68;;;4.28;;
49942;SDS011;36011;53.362;58.948;2023-09-19T14:40:10;6.00;;;3.60;;
49942;SDS011;36011;53.362;58.948;2023-09-19T14:43:14;6.53;;;3.63;;
49942;SDS011;36011;53.362;58.948;2023-09-19T14:46:18;6.18;;;3.92;;
49942;SDS011;36011;53.362;58.948;2023-09-19T14:49:25;5.82;;;3.85;;
49942;SDS011;36011;53.362;58.948;2023-09-19T14:52:27;8.63;;;4.80;;
49942;SDS011;36011;53.362;58.948;2023-09-19T14:55:29;10.57;;;5.03;;
49942;SDS011;36011;53.362;58.948;2023-09-19T14:58:39;14.80;;;6.50;;
49942;SDS011;36011;53.362;58.948;2023-09-19T15:01:46;8.70;;;6.13;;
49942;SDS011;36011;53.362;58.948;2023-09-19T15:04:51;8.65;;;5.65;;
49942;SDS011;36011;53.362;58.948;2023-09-19T15:07:54;9.48;;;5.45;;
49942;SDS011;36011;53.362;58.948;2023-09-19T15:10:57;7.80;;;4.53;;
49942;SDS011;36011;53.362;58.948;2023-09-19T15:14:07;7.15;;;4.82;;
49942;SDS011;36011;53.362;58.948;2023-09-19T15:17:09;6.35;;;3.72;;
49942;SDS011;36011;53.362;58.948;2023-09-19T15:20:15;6.70;;;4.22;;
49942;SDS011;36011;53.362;58.948;2023-09-19T15:23:18;7.37;;;3.73;;
49942;SDS011;36011;53.362;58.948;2023-09-19T15:26:22;8.30;;;5.07;;
49942;SDS011;36011;53.362;58.948;2023-09-19T15:29:27;11.93;;;4.93;;
49942;SDS011;36011;53.362;58.948;2023-09-19T15:32:32;7.03;;;4.15;;
49942;SDS011;36011;53.362;58.948;2023-09-19T15:35:34;7.97;;;3.15;;
49942;SDS011;36011;53.362;58.948;2023-09-19T15:38:55;5.88;;;3.25;;
49942;SDS011;36011;53.362;58.948;2023-09-19T15:42:01;5.40;;;3.73;;
49942;SDS011;36011;53.362;58.948;2023-09-19T15:45:05;4.63;;;3.45;;
49942;SDS011;36011;53.362;58.948;2023-09-19T15:48:09;8.73;;;4.72;;
49942;SDS011;36011;53.362;58.948;2023-09-19T15:51:15;5.72;;;3.67;;
49942;SDS011;36011;53.362;58.948;2023-09-19T15:54:17;7.10;;;4.25;;
49942;SDS011;36011;53.362;58.948;2023-09-19T15:57:21;13.82;;;8.05;;
49942;SDS011;36011;53.362;58.948;2023-09-19T16:00:24;6.80;;;4.80;;
49942;SDS011;36011;53.362;58.948;2023-09-19T16:03:25;6.78;;;4.22;;
49942;SDS011;36011;53.362;58.948;2023-09-19T16:06:30;5.53;;;3.50;;
49942;SDS011;36011;53.362;58.948;2023-09-19T16:09:33;3.67;;;3.10;;
49942;SDS011;36011;53.362;58.948;2023-09-19T16:12:38;5.53;;;3.20;;
49942;SDS011;36011;53.362;58.948;2023-09-19T16:18:50;4.55;;;3.45;;
49942;SDS011;36011;53.362;58.948;2023-09-19T16:22:01;5.03;;;3.65;;
49942;SDS011;36011;53.362;58.948;2023-09-19T16:25:05;11.05;;;6.28;;
49942;SDS011;36011;53.362;58.948;2023-09-19T16:28:09;6.05;;;3.85;;
49942;SDS011;36011;53.362;58.948;2023-09-19T16:31:11;7.63;;;3.67;;
49942;SDS011;36011;53.362;58.948;2023-09-19T16:34:16;6.25;;;4.28;;
49942;SDS011;36011;53.362;58.948;2023-09-19T16:37:20;6.75;;;4.05;;
49942;SDS011;36011;53.362;58.948;2023-09-19T16:40:27;6.45;;;4.68;;
49942;SDS011;36011;53.362;58.948;2023-09-19T16:46:37;9.60;;;4.20;;
49942;SDS011;36011;53.362;58.948;2023-09-19T16:49:42;7.07;;;4.50;;
49942;SDS011;36011;53.362;58.948;2023-09-19T16:55:49;6.15;;;4.65;;
49942;SDS011;36011;53.362;58.948;2023-09-19T16:58:53;7.15;;;4.68;;
49942;SDS011;36011;53.362;58.948;2023-09-19T17:05:05;7.60;;;4.93;;
49942;SDS011;36011;53.362;58.948;2023-09-19T17:08:09;6.32;;;4.80;;
49942;SDS011;36011;53.362;58.948;2023-09-19T17:11:11;10.23;;;5.30;;
49942;SDS011;36011;53.362;58.948;2023-09-19T17:14:14;13.93;;;8.90;;
49942;SDS011;36011;53.362;58.948;2023-09-19T17:17:21;8.18;;;4.95;;
49942;SDS011;36011;53.362;58.948;2023-09-19T17:20:25;7.70;;;5.35;;
49942;SDS011;36011;53.362;58.948;2023-09-19T17:23:32;6.65;;;5.13;;
49942;SDS011;36011;53.362;58.948;2023-09-19T17:26:39;7.95;;;5.00;;
49942;SDS011;36011;53.362;58.948;2023-09-19T17:29:46;10.00;;;5.45;;
49942;SDS011;36011;53.362;58.948;2023-09-19T17:32:50;10.63;;;5.32;;
49942;SDS011;36011;53.362;58.948;2023-09-19T17:36:05;9.63;;;5.22;;
49942;SDS011;36011;53.362;58.948;2023-09-19T17:39:08;8.02;;;5.18;;
49942;SDS011;36011;53.362;58.948;2023-09-19T17:42:16;6.85;;;5.13;;
49942;SDS011;36011;53.362;58.948;2023-09-19T17:45:20;10.50;;;5.15;;
49942;SDS011;36011;53.362;58.948;2023-09-19T17:48:22;8.52;;;5.35;;
49942;SDS011;36011;53.362;58.948;2023-09-19T17:51:28;8.48;;;5.45;;
49942;SDS011;36011;53.362;58.948;2023-09-19T17:54:35;8.00;;;5.13;;
49942;SDS011;36011;53.362;58.948;2023-09-19T17:57:39;10.40;;;5.80;;
49942;SDS011;36011;53.362;58.948;2023-09-19T18:00:43;8.00;;;5.03;;
49942;SDS011;36011;53.362;58.948;2023-09-19T18:03:48;7.85;;;4.75;;
49942;SDS011;36011;53.362;58.948;2023-09-19T18:06:59;6.90;;;5.53;;
49942;SDS011;36011;53.362;58.948;2023-09-19T18:10:03;7.80;;;5.20;;
49942;SDS011;36011;53.362;58.948;2023-09-19T18:13:08;10.43;;;6.75;;
49942;SDS011;36011;53.362;58.948;2023-09-19T18:16:10;8.52;;;5.90;;
49942;SDS011;36011;53.362;58.948;2023-09-19T18:19:17;8.90;;;5.40;;
49942;SDS011;36011;53.362;58.948;2023-09-19T18:22:21;6.90;;;5.05;;
49942;SDS011;36011;53.362;58.948;2023-09-19T18:25:23;10.38;;;5.68;;
49942;SDS011;36011;53.362;58.948;2023-09-19T18:28:30;8.30;;;5.05;;
49942;SDS011;36011;53.362;58.948;2023-09-19T18:31:34;7.28;;;4.32;;
49942;SDS011;36011;53.362;58.948;2023-09-19T18:34:41;6.72;;;4.97;;
49942;SDS011;36011;53.362;58.948;2023-09-19T18:37:47;7.90;;;5.10;;
49942;SDS011;36011;53.362;58.948;2023-09-19T18:40:48;6.60;;;4.35;;
49942;SDS011;36011;53.362;58.948;2023-09-19T18:43:55;6.38;;;4.72;;
49942;SDS011;36011;53.362;58.948;2023-09-19T18:47:03;6.25;;;4.35;;
49942;SDS011;36011;53.362;58.948;2023-09-19T18:50:07;8.70;;;5.43;;
49942;SDS011;36011;53.362;58.948;2023-09-19T18:53:13;6.70;;;4.70;;
49942;SDS011;36011;53.362;58.948;2023-09-19T18:56:14;6.88;;;4.43;;
49942;SDS011;36011;53.362;58.948;2023-09-19T18:59:19;7.60;;;5.10;;
49942;SDS011;36011;53.362;58.948;2023-09-19T19:02:23;8.05;;;5.00;;
49942;SDS011;36011;53.362;58.948;2023-09-19T19:05:27;8.00;;;5.68;;
49942;SDS011;36011;53.362;58.948;2023-09-19T19:08:31;11.02;;;7.47;;
49942;SDS011;36011;53.362;58.948;2023-09-19T19:11:37;13.98;;;5.07;;
49942;SDS011;36011;53.362;58.948;2023-09-19T19:17:50;6.65;;;4.28;;